createdAt,value
2023-04-01T00:01:08.195Z,89.27
2023-04-01T00:03:36.492Z,89.82
2023-04-01T00:06:03.913Z,90.58
2023-04-01T00:08:31.486Z,90.31
2023-04-01T00:10:59.257Z,90.52
2023-04-01T00:13:27.375Z,89.97
2023-04-01T00:15:56.135Z,90.36
2023-04-01T00:18:24.393Z,89.19
2023-04-01T00:20:52.981Z,89.13
2023-04-01T00:23:20.202Z,89.64
2023-04-01T00:25:49.111Z,89.38
2023-04-01T00:28:21.273Z,89.04
2023-04-01T00:30:48.686Z,89.62
2023-04-01T00:33:16.584Z,90.31
2023-04-01T00:35:43.379Z,89.42
2023-04-01T00:38:12.329Z,89.61
2023-04-01T00:40:44.644Z,90.33
2023-04-01T00:43:19.475Z,90.04
2023-04-01T00:45:48.573Z,90.06
2023-04-01T00:48:18.673Z,89.62
2023-04-01T00:51:07.910Z,89.02
2023-04-01T00:53:39.768Z,88.79
2023-04-01T00:56:27.970Z,90.52
2023-04-01T00:59:02.657Z,91.89
2023-04-01T01:01:31.690Z,91.19
2023-04-01T01:03:58.534Z,91.15
2023-04-01T01:06:40.114Z,91.61
2023-04-01T01:09:24.032Z,90.67
2023-04-01T01:12:00.896Z,90.79
2023-04-01T01:14:59.457Z,90.78
2023-04-01T01:18:01.276Z,90.76
2023-04-01T01:20:47.027Z,89.64
2023-04-01T01:23:41.239Z,89.54
2023-04-01T01:26:53.321Z,90.22
2023-04-01T01:29:44.803Z,90.35
2023-04-01T01:32:14.530Z,90.57
2023-04-01T01:35:12.292Z,90.68
2023-04-01T01:37:42.117Z,91.89
2023-04-01T01:40:12.708Z,92.87
2023-04-01T01:42:46.832Z,92.51
2023-04-01T01:45:18.976Z,92.29
2023-04-01T01:47:49.531Z,92.51
2023-04-01T01:50:18.232Z,93.20
2023-04-01T01:52:45.266Z,93.27
2023-04-01T01:55:28.638Z,93.30
2023-04-01T01:58:02.837Z,93.35
2023-04-01T02:00:31.150Z,93.24
2023-04-01T02:03:01.949Z,93.42
2023-04-01T02:05:32.110Z,93.32
2023-04-01T02:08:10.527Z,93.52
2023-04-01T02:10:39.154Z,93.80
2023-04-01T02:13:19.833Z,93.88
2023-04-01T02:15:49.979Z,93.66
2023-04-01T02:18:19.254Z,93.46
2023-04-01T02:20:46.706Z,93.26
2023-04-01T02:23:14.710Z,92.23
2023-04-01T02:25:43.854Z,91.84
2023-04-01T02:28:13.737Z,92.55
2023-04-01T02:30:44.109Z,92.21
2023-04-01T02:33:11.598Z,92.32
2023-04-01T02:35:38.711Z,91.58
2023-04-01T02:38:07.840Z,90.82
2023-04-01T02:40:48.240Z,91.54
2023-04-01T02:43:15.734Z,91.15
2023-04-01T02:45:42.815Z,91.16
2023-04-01T02:48:10.300Z,90.60
2023-04-01T02:50:37.114Z,91.02
2023-04-01T02:53:04.881Z,91.98
2023-04-01T02:55:32.487Z,91.88
2023-04-01T02:58:00.202Z,91.25
2023-04-01T03:00:28.797Z,91.68
2023-04-01T03:02:55.897Z,91.26
2023-04-01T03:05:22.771Z,91.20
2023-04-01T03:07:49.894Z,91.27
2023-04-01T03:10:17.096Z,91.61
2023-04-01T03:12:44.032Z,91.77
2023-04-01T03:15:12.836Z,91.43
2023-04-01T03:17:40.811Z,91.32
2023-04-01T03:20:09.619Z,91.06
2023-04-01T03:22:36.712Z,91.16
2023-04-01T03:25:05.234Z,91.13
2023-04-01T03:27:32.852Z,90.88
2023-04-01T03:29:59.597Z,90.75
2023-04-01T03:32:29.028Z,90.43
2023-04-01T03:34:55.813Z,90.96
2023-04-01T03:37:24.028Z,90.46
2023-04-01T03:39:51.372Z,90.79
2023-04-01T03:42:18.158Z,89.74
2023-04-01T03:44:44.950Z,90.80
2023-04-01T03:47:12.441Z,91.21
2023-04-01T03:49:39.488Z,91.05
2023-04-01T03:52:10.666Z,91.35
2023-04-01T03:54:38.042Z,92.75
2023-04-01T03:57:05.494Z,92.76
2023-04-01T03:59:33.641Z,94.53
2023-04-01T04:02:01.019Z,94.71
2023-04-01T04:04:28.828Z,93.93
2023-04-01T04:06:56.117Z,93.79
2023-04-01T04:09:24.261Z,93.84
2023-04-01T04:11:51.076Z,93.90
2023-04-01T04:14:18.450Z,93.96
2023-04-01T04:16:46.992Z,93.61
2023-04-01T04:19:13.794Z,94.11
2023-04-01T04:21:42.233Z,95.99
2023-04-01T04:24:10.499Z,97.14
2023-04-01T04:27:06.586Z,96.37
2023-04-01T04:29:34.772Z,95.97
2023-04-01T04:32:02.033Z,95.96
2023-04-01T04:34:29.108Z,95.46
2023-04-01T04:36:56.270Z,95.13
2023-04-01T04:39:26.286Z,94.04
2023-04-01T04:41:53.308Z,93.45
2023-04-01T04:44:20.016Z,93.32
2023-04-01T04:46:47.035Z,93.02
2023-04-01T04:49:15.546Z,93.52
2023-04-01T04:51:42.597Z,92.29
2023-04-01T04:54:09.976Z,92.75
2023-04-01T04:56:57.893Z,92.77
2023-04-01T04:59:27.171Z,92.91
2023-04-01T05:02:06.190Z,92.63
2023-04-01T05:04:37.709Z,92.85
2023-04-01T05:07:06.684Z,93.40
2023-04-01T05:09:34.946Z,93.87
2023-04-01T05:12:02.606Z,93.69
2023-04-01T05:14:40.324Z,94.75
2023-04-01T05:17:11.677Z,96.39
2023-04-01T05:19:39.048Z,96.98
2023-04-01T05:22:07.217Z,96.64
2023-04-01T05:24:34.464Z,95.86
2023-04-01T05:27:01.264Z,95.05
2023-04-01T05:29:29.624Z,93.96
2023-04-01T05:32:04.178Z,93.94
2023-04-01T05:34:31.280Z,93.22
2023-04-01T05:36:58.025Z,93.33
2023-04-01T05:39:24.930Z,92.85
2023-04-01T05:41:51.698Z,91.38
2023-04-01T05:44:18.895Z,89.94
2023-04-01T05:47:17.780Z,91.28
2023-04-01T05:49:44.571Z,91.37
2023-04-01T05:52:11.482Z,91.42
2023-04-01T05:54:38.532Z,91.37
2023-04-01T05:57:05.504Z,92.14
2023-04-01T05:59:32.469Z,92.16
2023-04-01T06:02:00.012Z,93.15
2023-04-01T06:04:33.928Z,92.52
2023-04-01T06:07:01.006Z,93.28
2023-04-01T06:09:31.304Z,93.47
2023-04-01T06:12:01.505Z,93.31
2023-04-01T06:14:35.586Z,93.68
2023-04-01T06:17:34.219Z,93.61
2023-04-01T06:20:21.174Z,93.78
2023-04-01T06:23:12.767Z,94.44
2023-04-01T06:26:02.880Z,94.16
2023-04-01T06:29:11.254Z,94.49
2023-04-01T06:32:09.436Z,94.37
2023-04-01T06:35:00.369Z,94.13
2023-04-01T06:37:58.616Z,94.34
2023-04-01T06:41:02.771Z,95.09
2023-04-01T06:43:55.469Z,95.01
2023-04-01T06:47:32.282Z,95.07
2023-04-01T06:50:42.788Z,94.79
2023-04-01T06:54:00.758Z,93.82
2023-04-01T06:56:51.874Z,92.59
2023-04-01T06:59:33.263Z,91.04
2023-04-01T07:02:20.609Z,90.84
2023-04-01T07:04:53.908Z,89.84
2023-04-01T07:07:38.838Z,89.83
2023-04-01T07:10:18.959Z,89.07
2023-04-01T07:13:12.580Z,88.41
2023-04-01T07:16:13.908Z,90.69
2023-04-01T07:18:48.712Z,91.63
2023-04-01T07:21:50.158Z,92.72
2023-04-01T07:24:32.974Z,93.29
2023-04-01T07:27:10.499Z,92.91
2023-04-01T07:29:38.756Z,91.94
2023-04-01T07:32:13.801Z,92.76
2023-04-01T07:35:05.829Z,92.66
2023-04-01T07:37:37.866Z,92.30
2023-04-01T07:40:13.495Z,92.19
2023-04-01T07:43:16.147Z,92.33
2023-04-01T07:46:11.222Z,92.14
2023-04-01T07:49:12.850Z,91.94
2023-04-01T07:51:52.596Z,92.43
2023-04-01T07:54:19.849Z,92.57
2023-04-01T07:56:57.843Z,92.20
2023-04-01T07:59:36.458Z,91.57
2023-04-01T08:02:34.477Z,91.97
2023-04-01T08:05:27.063Z,92.10
2023-04-01T08:08:07.341Z,91.13
2023-04-01T08:11:11.370Z,88.84
2023-04-01T08:14:12.630Z,87.12
2023-04-01T08:17:24.972Z,86.56
2023-04-01T08:20:30.948Z,85.67
2023-04-01T08:23:06.673Z,85.38
2023-04-01T08:25:49.156Z,84.19
2023-04-01T08:28:30.582Z,87.03
2023-04-01T08:31:02.621Z,85.82
2023-04-01T08:33:33.691Z,85.76
2023-04-01T08:36:18.291Z,86.12
2023-04-01T08:38:54.544Z,83.33
2023-04-01T08:41:40.268Z,83.50
2023-04-01T08:44:53.336Z,80.52
2023-04-01T08:47:25.803Z,83.80
2023-04-01T08:50:07.954Z,85.64
2023-04-01T08:53:00.589Z,84.58
2023-04-01T08:55:36.794Z,83.03
2023-04-01T08:58:27.433Z,83.61
2023-04-01T09:01:14.128Z,83.14
2023-04-01T09:04:17.678Z,83.42
2023-04-01T09:06:58.690Z,83.42
2023-04-01T09:09:37.829Z,82.80
2023-04-01T09:12:35.326Z,82.21
2023-04-01T09:15:14.436Z,83.25
2023-04-01T09:17:56.677Z,83.00
2023-04-01T09:20:35.723Z,81.57
2023-04-01T09:23:36.695Z,81.04
2023-04-01T09:26:16.359Z,80.01
2023-04-01T09:29:05.414Z,79.76
2023-04-01T09:32:09.664Z,80.32
2023-04-01T09:35:21.822Z,79.08
2023-04-01T09:37:49.230Z,77.81
2023-04-01T09:40:26.670Z,79.10
2023-04-01T09:43:24.035Z,79.64
2023-04-01T09:46:12.497Z,79.56
2023-04-01T09:48:54.364Z,78.06
2023-04-01T09:51:36.302Z,77.60
2023-04-01T09:54:13.975Z,77.22
2023-04-01T09:57:17.562Z,76.16
2023-04-01T10:00:25.312Z,77.03
2023-04-01T10:03:33.396Z,77.52
2023-04-01T10:06:19.018Z,77.02
2023-04-01T10:09:20.721Z,75.90
2023-04-01T10:12:22.559Z,76.25
2023-04-01T10:15:31.053Z,75.76
2023-04-01T10:18:07.497Z,75.82
2023-04-01T10:20:40.436Z,75.32
2023-04-01T10:23:29.654Z,74.89
2023-04-01T10:26:15.668Z,74.21
2023-04-01T10:28:54.677Z,76.14
2023-04-01T10:31:45.049Z,74.80
2023-04-01T10:34:36.095Z,73.62
2023-04-01T10:37:05.561Z,75.41
2023-04-01T10:40:04.012Z,74.08
2023-04-01T10:42:45.084Z,77.04
2023-04-01T10:45:58.918Z,75.57
2023-04-01T10:48:54.407Z,73.35
2023-04-01T10:51:36.781Z,74.00
2023-04-01T10:54:21.714Z,72.84
2023-04-01T10:57:39.564Z,73.25
2023-04-01T11:00:27.853Z,71.58
2023-04-01T11:03:23.702Z,71.30
2023-04-01T11:06:42.672Z,69.68
2023-04-01T11:09:38.888Z,70.37
2023-04-01T11:12:34.535Z,71.25
2023-04-01T11:15:19.727Z,69.51
2023-04-01T11:18:14.863Z,70.63
2023-04-01T11:20:51.334Z,67.61
2023-04-01T11:23:43.998Z,67.48
2023-04-01T11:26:40.414Z,67.51
2023-04-01T11:29:59.079Z,68.52
2023-04-01T11:33:05.845Z,66.94
2023-04-01T11:35:39.158Z,67.50
2023-04-01T11:38:34.599Z,68.15
2023-04-01T11:41:30.697Z,68.36
2023-04-01T11:44:30.429Z,64.74
2023-04-01T11:47:29.976Z,67.75
2023-04-01T11:50:24.787Z,66.52
2023-04-01T11:53:25.484Z,67.04
2023-04-01T11:56:03.874Z,67.63
2023-04-01T11:58:39.523Z,67.82
2023-04-01T12:01:26.303Z,67.87
2023-04-01T12:04:14.492Z,66.27
2023-04-01T12:07:04.260Z,64.79
2023-04-01T12:09:55.664Z,65.10
2023-04-01T12:12:58.368Z,65.36
2023-04-01T12:15:38.975Z,64.42
2023-04-01T12:18:23.832Z,64.32
2023-04-01T12:21:02.810Z,63.45
2023-04-01T12:23:53.566Z,64.65
2023-04-01T12:26:35.129Z,66.69
2023-04-01T12:29:24.699Z,63.62
2023-04-01T12:32:18.244Z,62.65
2023-04-01T12:35:02.012Z,63.63
2023-04-01T12:37:41.192Z,62.66
2023-04-01T12:40:32.737Z,63.48
2023-04-01T12:43:33.941Z,61.22
2023-04-01T12:46:22.161Z,60.82
2023-04-01T12:49:26.422Z,59.37
2023-04-01T12:52:18.356Z,59.69
2023-04-01T12:55:27.013Z,58.21
2023-04-01T12:58:18.138Z,57.69
2023-04-01T13:00:51.070Z,57.08
2023-04-01T13:03:33.006Z,55.50
2023-04-01T13:06:21.406Z,56.02
2023-04-01T13:08:58.740Z,59.62
2023-04-01T13:11:43.750Z,58.18
2023-04-01T13:14:18.491Z,58.19
2023-04-01T13:16:56.888Z,58.86
2023-04-01T13:19:30.649Z,57.52
2023-04-01T13:22:36.599Z,59.30
2023-04-01T13:25:10.820Z,58.79
2023-04-01T13:27:49.498Z,56.38
2023-04-01T13:30:29.002Z,60.86
2023-04-01T13:33:02.513Z,59.36
2023-04-01T13:35:54.668Z,59.46
2023-04-01T13:38:43.091Z,61.02
2023-04-01T13:41:47.402Z,62.54
2023-04-01T13:44:22.642Z,61.23
2023-04-01T13:47:10.544Z,62.49
2023-04-01T13:49:43.372Z,63.87
2023-04-01T13:52:25.439Z,62.18
2023-04-01T13:54:54.901Z,64.89
2023-04-01T13:57:43.573Z,66.08
2023-04-01T14:00:25.652Z,68.09
2023-04-01T14:03:16.740Z,69.21
2023-04-01T14:05:47.512Z,70.15
2023-04-01T14:08:35.372Z,68.44
2023-04-01T14:11:37.525Z,69.10
2023-04-01T14:14:43.380Z,67.83
2023-04-01T14:17:25.495Z,67.82
2023-04-01T14:20:07.772Z,69.41
2023-04-01T14:23:13.918Z,70.06
2023-04-01T14:25:56.381Z,70.70
2023-04-01T14:28:49.990Z,68.29
2023-04-01T14:31:35.569Z,69.59
2023-04-01T14:34:11.037Z,68.26
2023-04-01T14:37:00.747Z,71.37
2023-04-01T14:39:51.793Z,70.03
2023-04-01T14:42:55.783Z,70.74
2023-04-01T14:45:41.641Z,70.91
2023-04-01T14:48:35.803Z,67.76
2023-04-01T14:51:40.014Z,65.20
2023-04-01T14:54:09.430Z,67.79
2023-04-01T14:56:43.162Z,68.42
2023-04-01T14:59:29.494Z,67.80
2023-04-01T15:02:34.023Z,68.23
2023-04-01T15:05:16.669Z,67.32
2023-04-01T15:08:07.163Z,68.99
2023-04-01T15:10:58.862Z,70.63
2023-04-01T15:13:36.714Z,71.36
2023-04-01T15:16:41.191Z,70.36
2023-04-01T15:19:18.777Z,69.86
2023-04-01T15:22:19.911Z,69.24
2023-04-01T15:24:49.113Z,68.02
2023-04-01T15:27:22.631Z,68.75
2023-04-01T15:30:02.332Z,68.62
2023-04-01T15:32:44.314Z,68.23
2023-04-01T15:35:40.157Z,68.17
2023-04-01T15:38:09.717Z,66.91
2023-04-01T15:40:42.181Z,67.25
2023-04-01T15:43:36.670Z,66.68
2023-04-01T15:46:25.103Z,66.17
2023-04-01T15:49:35.957Z,65.43
2023-04-01T15:52:05.927Z,66.06
2023-04-01T15:54:51.594Z,65.82
2023-04-01T15:57:31.448Z,65.98
2023-04-01T16:00:10.848Z,67.57
2023-04-01T16:02:50.692Z,68.32
2023-04-01T16:05:23.458Z,68.15
2023-04-01T16:08:27.803Z,68.49
2023-04-01T16:11:08.407Z,69.25
2023-04-01T16:13:54.029Z,68.65
2023-04-01T16:16:51.095Z,67.80
2023-04-01T16:19:30.355Z,68.74
2023-04-01T16:22:12.370Z,68.07
2023-04-01T16:24:41.919Z,68.25
2023-04-01T16:27:28.417Z,67.77
2023-04-01T16:30:11.485Z,67.38
2023-04-01T16:33:04.544Z,67.81
2023-04-01T16:35:31.392Z,67.92
2023-04-01T16:38:15.988Z,67.64
2023-04-01T16:40:50.562Z,68.59
2023-04-01T16:43:28.115Z,69.32
2023-04-01T16:46:13.196Z,70.07
2023-04-01T16:49:15.023Z,70.41
2023-04-01T16:52:09.483Z,70.37
2023-04-01T16:55:05.189Z,70.70
2023-04-01T16:57:44.240Z,71.06
2023-04-01T17:00:32.234Z,71.10
2023-04-01T17:03:02.132Z,71.29
2023-04-01T17:06:07.331Z,71.29
2023-04-01T17:08:57.264Z,71.41
2023-04-01T17:11:52.476Z,71.66
2023-04-01T17:14:19.211Z,72.25
2023-04-01T17:17:26.248Z,72.80
2023-04-01T17:20:17.748Z,72.87
2023-04-01T17:22:56.985Z,72.57
2023-04-01T17:25:32.731Z,72.47
2023-04-01T17:28:35.934Z,73.31
2023-04-01T17:31:11.511Z,73.55
2023-04-01T17:33:57.005Z,74.42
2023-04-01T17:36:39.717Z,74.72
2023-04-01T17:39:19.143Z,74.91
2023-04-01T17:42:07.568Z,74.96
2023-04-01T17:44:49.801Z,75.27
2023-04-01T17:47:26.687Z,75.53
2023-04-01T17:50:15.059Z,75.61
2023-04-01T17:52:48.574Z,75.50
2023-04-01T17:55:32.621Z,75.16
2023-04-01T17:58:24.213Z,74.64
2023-04-01T18:01:15.776Z,74.80
2023-04-01T18:04:02.516Z,75.06
2023-04-01T18:06:37.202Z,75.10
2023-04-01T18:09:42.437Z,75.37
2023-04-01T18:12:18.319Z,75.53
2023-04-01T18:15:03.939Z,75.38
2023-04-01T18:18:12.138Z,75.12
2023-04-01T18:21:05.343Z,75.62
2023-04-01T18:23:52.143Z,75.62
2023-04-01T18:26:33.313Z,75.58
2023-04-01T18:29:25.633Z,75.37
2023-04-01T18:32:25.992Z,76.08
2023-04-01T18:35:22.217Z,76.43
2023-04-01T18:38:00.439Z,76.24
2023-04-01T18:40:55.444Z,76.32
2023-04-01T18:43:43.672Z,76.10
2023-04-01T18:46:47.828Z,76.20
2023-04-01T18:49:36.760Z,76.50
2023-04-01T18:52:28.728Z,76.63
2023-04-01T18:55:06.310Z,76.66
2023-04-01T18:57:53.980Z,77.06
2023-04-01T19:00:44.227Z,76.63
2023-04-01T19:03:24.253Z,77.24
2023-04-01T19:05:54.878Z,77.34
2023-04-01T19:08:37.144Z,77.36
2023-04-01T19:11:16.212Z,77.34
2023-04-01T19:13:53.275Z,77.46
2023-04-01T19:16:23.022Z,77.26
2023-04-01T19:19:18.929Z,77.38
2023-04-01T19:22:03.727Z,77.17
2023-04-01T19:24:53.093Z,76.78
2023-04-01T19:27:22.834Z,76.65
2023-04-01T19:30:17.130Z,76.11
2023-04-01T19:33:08.505Z,76.08
2023-04-01T19:35:35.427Z,76.24
2023-04-01T19:38:13.495Z,76.16
2023-04-01T19:40:52.551Z,76.04
2023-04-01T19:43:19.493Z,75.20
2023-04-01T19:46:11.298Z,74.99
2023-04-01T19:48:49.714Z,75.89
2023-04-01T19:51:45.833Z,75.98
2023-04-01T19:54:42.449Z,75.83
2023-04-01T19:57:39.473Z,74.16
2023-04-01T20:00:26.141Z,75.37
2023-04-01T20:03:19.374Z,75.67
2023-04-01T20:06:18.751Z,76.12
2023-04-01T20:09:16.475Z,75.94
2023-04-01T20:11:56.151Z,76.65
2023-04-01T20:14:30.361Z,76.11
2023-04-01T20:17:22.177Z,75.78
2023-04-01T20:19:57.859Z,76.22
2023-04-01T20:22:46.342Z,76.07
2023-04-01T20:25:19.188Z,75.62
2023-04-01T20:27:54.838Z,75.57
2023-04-01T20:30:39.918Z,75.58
2023-04-01T20:33:27.867Z,74.92
2023-04-01T20:36:17.150Z,75.12
2023-04-01T20:38:50.433Z,75.12
2023-04-01T20:41:41.455Z,75.72
2023-04-01T20:44:23.548Z,75.73
2023-04-01T20:47:16.313Z,75.74
2023-04-01T20:50:08.114Z,75.24
2023-04-01T20:52:58.678Z,74.86
2023-04-01T20:55:50.070Z,74.63
2023-04-01T20:58:30.652Z,74.44
2023-04-01T21:01:12.847Z,73.20
2023-04-01T21:04:10.055Z,72.54
2023-04-01T21:07:02.537Z,72.10
2023-04-01T21:09:57.029Z,72.30
2023-04-01T21:12:40.934Z,71.38
2023-04-01T21:15:11.073Z,71.26
2023-04-01T21:17:59.430Z,70.66
2023-04-01T21:20:52.223Z,71.05
2023-04-01T21:23:43.870Z,71.04
2023-04-01T21:26:10.834Z,71.53
2023-04-01T21:28:53.628Z,71.34
2023-04-01T21:31:53.334Z,71.80
2023-04-01T21:34:52.797Z,72.21
2023-04-01T21:37:22.778Z,72.36
2023-04-01T21:40:27.171Z,72.17
2023-04-01T21:43:15.416Z,72.42
2023-04-01T21:46:07.152Z,72.78
2023-04-01T21:48:58.227Z,72.03
2023-04-01T21:51:46.735Z,71.79
2023-04-01T21:54:49.130Z,71.69
2023-04-01T21:57:42.351Z,71.65
2023-04-01T22:00:38.990Z,71.66
2023-04-01T22:03:58.434Z,71.57
2023-04-01T22:06:46.632Z,72.42
2023-04-01T22:09:30.628Z,72.46
2023-04-01T22:12:19.276Z,71.80
2023-04-01T22:14:52.141Z,71.40
2023-04-01T22:17:25.164Z,70.38
2023-04-01T22:20:13.756Z,69.17
2023-04-01T22:22:58.184Z,68.86
2023-04-01T22:25:50.827Z,68.62
2023-04-01T22:28:23.372Z,69.35
2023-04-01T22:30:53.968Z,69.29
2023-04-01T22:33:32.233Z,70.95
2023-04-01T22:36:25.088Z,71.60
2023-04-01T22:39:30.089Z,71.17
2023-04-01T22:42:18.469Z,71.48
2023-04-01T22:45:07.145Z,71.78
2023-04-01T22:47:46.247Z,72.13
2023-04-01T22:50:48.516Z,71.94
2023-04-01T22:53:27.469Z,70.65
2023-04-01T22:55:58.416Z,69.04
2023-04-01T22:58:52.044Z,68.54
2023-04-01T23:01:24.732Z,67.55
2023-04-01T23:03:53.146Z,67.48
2023-04-01T23:06:32.126Z,67.62
2023-04-01T23:09:08.971Z,68.07
2023-04-01T23:11:47.120Z,68.19
2023-04-01T23:14:24.752Z,68.25
2023-04-01T23:16:58.512Z,68.05
2023-04-01T23:19:37.703Z,68.92
2023-04-01T23:22:31.614Z,69.07
2023-04-01T23:25:25.136Z,69.26
2023-04-01T23:28:08.108Z,69.80
2023-04-01T23:30:40.936Z,71.17
2023-04-01T23:33:19.913Z,71.33
2023-04-01T23:35:56.350Z,70.98
2023-04-01T23:38:27.213Z,70.91
2023-04-01T23:40:55.537Z,71.36
2023-04-01T23:43:47.616Z,71.56
2023-04-01T23:46:14.509Z,71.91
2023-04-01T23:48:44.449Z,71.80
2023-04-01T23:51:23.349Z,71.76
2023-04-01T23:54:01.075Z,71.70
2023-04-01T23:56:44.461Z,71.99
2023-04-01T23:59:28.541Z,72.06
